Ramore, Canada
Current Conditions -  °F | °C
As of 4:00 AM on Thursday 23 Oct 2014 (Local Time) from CYTS Reporting Station
Clear Clear  
Wind Chill: 23°   Ceiling: Unl
Heat Index: 28°   Visibility: 15mi
Dew Point: 27°   Wind: 5mph
Humidity: 93%   Direction: 180°S
Pressure: 30.23"   Gusts: NA
Location:  48.42°N, 80.32°W
Report Text: CYTS 230800Z 18004KT 15SM SKC M02/M03 A3023 RMK FROIN SLP250
Loading
Personal Weather Stations






























Interactive Weather Map
Tropical Storm Tracking
New forecast layout! Learn more

10-Day Weather Forecast

Advertisements
Track Severe Weather on mobile